Time;durP1;ratioP1;P1;durP2;ratioP2;P2;SDS_P1;SDS_P2;PMS_P1;PMS_P2;Temp;Humidity;BMP_temperature;BMP_pressure;BME280_temperature;BME280_humidity;BME280_pressure;Samples;Min_cycle;Max_cycle;Signal;HPM_P1;HPM_P2
2022/11/01 00:01:25;;;;;;;;;;;;;;;;;;5078771;28;19986;-73
2022/11/01 00:03:50;;;;;;;;;;;;;;;;;;5068638;28;19920;-73
2022/11/01 00:06:15;;;;;;;;;;;;;;;;;;5072380;28;19925;-72
2022/11/01 00:08:40;;;;;;;;;;;;;;;;;;5078061;28;19939;-72
2022/11/01 00:11:05;;;;;;;;;;;;;;;;;;5069045;28;19923;-72
2022/11/01 00:13:31;;;;;;;;;;;;;;;;;;5066405;28;19919;-72
2022/11/01 00:15:56;;;;;;;;;;;;;;;;;;5082336;28;19969;-72
2022/11/01 00:18:21;;;;;;;;;;;;;;;;;;5070328;28;19919;-72
2022/11/01 00:20:46;;;;;;;;;;;;;;;;;;5062618;28;19964;-71
2022/11/01 00:23:11;;;;;;;;;;;;;;;;;;5072942;28;19974;-72
2022/11/01 00:25:36;;;;;;;;;;;;;;;;;;5070108;28;19920;-72
2022/11/01 00:28:01;;;;;;;;;;;;;;;;;;5070833;28;19919;-72
2022/11/01 00:30:26;;;;;;;;;;;;;;;;;;5098016;28;19944;-72
2022/11/01 00:32:51;;;;;;;;;;;;;;;;;;5071557;28;19912;-71
2022/11/01 00:35:17;;;;;;;;;;;;;;;;;;5065618;28;20033;-72
2022/11/01 00:37:42;;;;;;;;;;;;;;;;;;5071327;28;19918;-72
2022/11/01 00:40:07;;;;;;;;;;;;;;;;;;5071583;28;19955;-72
2022/11/01 00:42:32;;;;;;;;;;;;;;;;;;5071495;28;19912;-72
2022/11/01 00:44:58;;;;;;;;;;;;;;;;;;5073039;28;19920;-72
2022/11/01 00:47:23;;;;;;;;;;;;;;;;;;5074121;28;19977;-72
2022/11/01 00:49:48;;;;;;;;;;;;;;;;;;5075393;28;19916;-72
2022/11/01 00:52:15;;;;;;;;;;;;;;;;;;5072798;28;20428;-72
2022/11/01 00:54:40;;;;;;;;;;;;;;;;;;5069851;28;19913;-71
2022/11/01 00:57:05;;;;;;;;;;;;;;;;;;5065159;28;19919;-72
2022/11/01 00:59:30;;;;;;;;;;;;;;;;;;5056648;28;19920;-72
2022/11/01 01:01:55;;;;;;;;;;;;;;;;;;5077157;28;19975;-72
2022/11/01 01:04:20;;;;;;;;;;;;;;;;;;5073467;28;20034;-71
2022/11/01 01:06:45;;;;;;;;;;;;;;;;;;5075351;28;20012;-72
2022/11/01 01:09:10;;;;;;;;;;;;;;;;;;5080976;28;19981;-72
2022/11/01 01:11:36;;;;;;;;;;;;;;;;;;5075765;28;19912;-72
2022/11/01 01:14:01;;;;;;;;;;;;;;;;;;5105131;28;19924;-70
2022/11/01 01:16:26;;;;;;;;;;;;;;;;;;5075189;28;19912;-72
2022/11/01 01:18:51;;;;;;;;;;;;;;;;;;5107047;28;19909;-72
2022/11/01 01:21:16;;;;;;;;;;;;;;;;;;5073290;28;19913;-72
2022/11/01 01:23:42;;;;;;;;;;;;;;;;;;5074606;28;20368;-72
2022/11/01 01:26:07;;;;;;;;;;;;;;;;;;5065434;28;20436;-72
2022/11/01 01:28:32;;;;;;;;;;;;;;;;;;5073372;28;20369;-73
2022/11/01 01:30:57;;;;;;;;;;;;;;;;;;5107093;28;20092;-72
2022/11/01 01:33:22;;;;;;;;;;;;;;;;;;5074533;28;19920;-72
2022/11/01 01:35:47;;;;;;;;;;;;;;;;;;5103211;28;19913;-72
2022/11/01 01:38:13;;;;;;;;;;;;;;;;;;5060835;28;19912;-72
2022/11/01 01:40:38;;;;;;;;;;;;;;;;;;5080786;28;19956;-73
2022/11/01 01:43:03;;;;;;;;;;;;;;;;;;5083425;28;19908;-73
2022/11/01 01:45:28;;;;;;;;;;;;;;;;;;5073697;28;20339;-73
2022/11/01 01:47:53;;;;;;;;;;;;;;;;;;5076059;28;20403;-72
2022/11/01 01:50:18;;;;;;;;;;;;;;;;;;5072374;28;19919;-73
2022/11/01 01:52:43;;;;;;;;;;;;;;;;;;5072274;28;20024;-72
2022/11/01 01:55:09;;;;;;;;;;;;;;;;;;5071437;28;20364;-70
2022/11/01 01:57:34;;;;;;;;;;;;;;;;;;5073353;28;19915;-73
2022/11/01 01:59:59;;;;;;;;;;;;;;;;;;5072050;28;20365;-70
2022/11/01 02:02:24;;;;;;;;;;;;;;;;;;5074754;28;20377;-73
2022/11/01 02:04:49;;;;;;;;;;;;;;;;;;5072781;28;19919;-71
2022/11/01 02:07:14;;;;;;;;;;;;;;;;;;5107385;28;20457;-73
2022/11/01 02:09:39;;;;;;;;;;;;;;;;;;5072176;28;19920;-73
2022/11/01 02:12:05;;;;;;;;;;;;;;;;;;5079323;28;19912;-73
2022/11/01 02:14:30;;;;;;;;;;;;;;;;;;5084011;28;19958;-73
2022/11/01 02:16:55;;;;;;;;;;;;;;;;;;5107004;28;20280;-73
2022/11/01 02:19:20;;;;;;;;;;;;;;;;;;5070793;28;20383;-72
2022/11/01 02:21:45;;;;;;;;;;;;;;;;;;5073930;28;19994;-73
2022/11/01 02:24:10;;;;;;;;;;;;;;;;;;5072440;28;19913;-73
2022/11/01 02:26:35;;;;;;;;;;;;;;;;;;5074459;28;19925;-73
2022/11/01 02:29:01;;;;;;;;;;;;;;;;;;5076437;28;19961;-73
2022/11/01 02:31:26;;;;;;;;;;;;;;;;;;5072230;28;19920;-73
2022/11/01 02:33:51;;;;;;;;;;;;;;;;;;5077938;28;20300;-72
2022/11/01 02:36:16;;;;;;;;;;;;;;;;;;5082749;28;19912;-73
2022/11/01 02:38:41;;;;;;;;;;;;;;;;;;5092001;28;19912;-73
2022/11/01 02:41:07;;;;;;;;;;;;;;;;;;5068537;28;20285;-73
2022/11/01 02:43:32;;;;;;;;;;;;;;;;;;5073449;28;20277;-73
2022/11/01 02:45:57;;;;;;;;;;;;;;;;;;5074243;28;19916;-73
2022/11/01 02:48:22;;;;;;;;;;;;;;;;;;5073693;28;19912;-72
2022/11/01 02:50:47;;;;;;;;;;;;;;;;;;5060846;28;19966;-72
2022/11/01 02:53:12;;;;;;;;;;;;;;;;;;5069494;28;20386;-72
2022/11/01 02:55:38;;;;;;;;;;;;;;;;;;5072589;28;20361;-71
2022/11/01 02:58:03;;;;;;;;;;;;;;;;;;5073287;28;19955;-73
2022/11/01 03:00:28;;;;;;;;;;;;;;;;;;5067314;28;19916;-71
2022/11/01 03:02:53;;;;;;;;;;;;;;;;;;5085363;28;19935;-73
2022/11/01 03:05:18;;;;;;;;;;;;;;;;;;5060938;28;19981;-72
2022/11/01 03:07:43;;;;;;;;;;;;;;;;;;5078960;28;19908;-72
2022/11/01 03:10:08;;;;;;;;;;;;;;;;;;5070258;28;19927;-72
2022/11/01 03:12:34;;;;;;;;;;;;;;;;;;5072060;28;19915;-73
2022/11/01 03:14:59;;;;;;;;;;;;;;;;;;5057999;28;19917;-73
2022/11/01 03:17:24;;;;;;;;;;;;;;;;;;5072219;28;19982;-72
2022/11/01 03:19:49;;;;;;;;;;;;;;;;;;5069951;28;19916;-72
2022/11/01 03:22:14;;;;;;;;;;;;;;;;;;5071039;28;19917;-72
2022/11/01 03:24:39;;;;;;;;;;;;;;;;;;5071758;28;20304;-72
2022/11/01 03:27:04;;;;;;;;;;;;;;;;;;5072178;28;20464;-72
2022/11/01 03:29:30;;;;;;;;;;;;;;;;;;5072411;28;19912;-72
2022/11/01 03:31:55;;;;;;;;;;;;;;;;;;5069259;28;20039;-73
2022/11/01 03:34:20;;;;;;;;;;;;;;;;;;5071195;28;19958;-72
2022/11/01 03:36:45;;;;;;;;;;;;;;;;;;5105990;27;19999;-73
2022/11/01 03:39:10;;;;;;;;;;;;;;;;;;5077256;28;19920;-73
2022/11/01 03:41:35;;;;;;;;;;;;;;;;;;5071838;28;19916;-73
2022/11/01 03:44:00;;;;;;;;;;;;;;;;;;5054659;28;19912;-73
2022/11/01 03:46:26;;;;;;;;;;;;;;;;;;5071793;28;20367;-73
2022/11/01 03:48:51;;;;;;;;;;;;;;;;;;5071867;28;20432;-73
2022/11/01 03:51:16;;;;;;;;;;;;;;;;;;5073208;28;19966;-74
2022/11/01 03:53:41;;;;;;;;;;;;;;;;;;5070756;28;20403;-72
2022/11/01 03:56:06;;;;;;;;;;;;;;;;;;5074794;28;19912;-72
2022/11/01 03:58:41;;;;;;;;;;;;;;;;;;5080177;28;19948;-72
2022/11/01 04:01:06;;;;;;;;;;;;;;;;;;5070249;28;19974;-72
2022/11/01 04:03:31;;;;;;;;;;;;;;;;;;5072080;28;19913;-71
2022/11/01 04:05:56;;;;;;;;;;;;;;;;;;5072363;28;20295;-73
2022/11/01 04:08:21;;;;;;;;;;;;;;;;;;5103692;28;19919;-73
2022/11/01 04:10:46;;;;;;;;;;;;;;;;;;5070340;28;19924;-73
2022/11/01 04:13:12;;;;;;;;;;;;;;;;;;5067686;28;19919;-73
2022/11/01 04:21:05;;;;;;;;;;;;;;;;;;5055882;28;19920;-73
2022/11/01 04:23:30;;;;;;;;;;;;;;;;;;5069868;28;19912;-73
2022/11/01 04:25:56;;;;;;;;;;;;;;;;;;5072107;28;19977;-73
2022/11/01 04:28:22;;;;;;;;;;;;;;;;;;5074068;28;19913;-73
2022/11/01 04:30:47;;;;;;;;;;;;;;;;;;5077636;28;19913;-73
2022/11/01 04:33:12;;;;;;;;;;;;;;;;;;5079213;28;19936;-74
2022/11/01 04:35:37;;;;;;;;;;;;;;;;;;5071357;28;19928;-74
2022/11/01 04:38:02;;;;;;;;;;;;;;;;;;5071047;28;19912;-73
2022/11/01 04:40:28;;;;;;;;;;;;;;;;;;5097160;28;19913;-71
2022/11/01 04:42:53;;;;;;;;;;;;;;;;;;5069474;28;20359;-73
2022/11/01 04:45:18;;;;;;;;;;;;;;;;;;5069423;28;19912;-72
2022/11/01 04:47:50;;;;;;;;;;;;;;;;;;5071456;28;19925;-73
2022/11/01 04:50:16;;;;;;;;;;;;;;;;;;5104684;28;20565;-73
2022/11/01 04:52:41;;;;;;;;;;;;;;;;;;5100525;28;20007;-73
2022/11/01 04:55:06;;;;;;;;;;;;;;;;;;5070231;28;19920;-73
2022/11/01 04:57:31;;;;;;;;;;;;;;;;;;5068798;28;20280;-72
2022/11/01 04:59:56;;;;;;;;;;;;;;;;;;5071310;28;20277;-73
2022/11/01 05:02:22;;;;;;;;;;;;;;;;;;5080366;28;19909;-73
2022/11/01 05:04:47;;;;;;;;;;;;;;;;;;5056110;28;19917;-73
2022/11/01 05:07:12;;;;;;;;;;;;;;;;;;5068467;28;19960;-73
2022/11/01 05:09:37;;;;;;;;;;;;;;;;;;5059070;28;19913;-73
2022/11/01 05:12:02;;;;;;;;;;;;;;;;;;5052898;28;19913;-73
2022/11/01 05:14:27;;;;;;;;;;;;;;;;;;5068857;28;19921;-73
2022/11/01 05:16:53;;;;;;;;;;;;;;;;;;5069073;28;20265;-74
2022/11/01 05:19:18;;;;;;;;;;;;;;;;;;5071026;28;19917;-70
2022/11/01 05:21:43;;;;;;;;;;;;;;;;;;5066749;28;20003;-72
2022/11/01 05:24:08;;;;;;;;;;;;;;;;;;5076582;28;19916;-71
2022/11/01 05:26:33;;;;;;;;;;;;;;;;;;5069003;28;19924;-73
2022/11/01 05:28:58;;;;;;;;;;;;;;;;;;5071188;28;20013;-73
2022/11/01 05:31:23;;;;;;;;;;;;;;;;;;5058588;28;19912;-72
2022/11/01 05:33:48;;;;;;;;;;;;;;;;;;5101439;27;19916;-72
2022/11/01 05:36:14;;;;;;;;;;;;;;;;;;5075630;28;19919;-74
2022/11/01 05:38:39;;;;;;;;;;;;;;;;;;5070277;28;20007;-72
2022/11/01 05:41:04;;;;;;;;;;;;;;;;;;5073319;28;19982;-72
2022/11/01 05:43:29;;;;;;;;;;;;;;;;;;5082424;28;19935;-73
2022/11/01 05:45:54;;;;;;;;;;;;;;;;;;5054591;28;19919;-72
2022/11/01 05:48:19;;;;;;;;;;;;;;;;;;5066483;28;19920;-73
2022/11/01 05:50:45;;;;;;;;;;;;;;;;;;5061187;28;20300;-72
2022/11/01 05:53:10;;;;;;;;;;;;;;;;;;5071112;28;19996;-72
2022/11/01 05:55:36;;;;;;;;;;;;;;;;;;5074342;28;20407;-73
2022/11/01 05:58:01;;;;;;;;;;;;;;;;;;5064399;28;19920;-72
2022/11/01 06:00:26;;;;;;;;;;;;;;;;;;5062409;28;19932;-72
2022/11/01 06:02:51;;;;;;;;;;;;;;;;;;5102434;28;19973;-71
2022/11/01 06:05:16;;;;;;;;;;;;;;;;;;5069697;28;19956;-72
2022/11/01 06:07:41;;;;;;;;;;;;;;;;;;5072124;28;20330;-72
2022/11/01 06:10:07;;;;;;;;;;;;;;;;;;5071462;28;19939;-73
2022/11/01 06:12:32;;;;;;;;;;;;;;;;;;5107036;28;19908;-73
2022/11/01 06:14:57;;;;;;;;;;;;;;;;;;5096112;28;19916;-74
2022/11/01 06:17:22;;;;;;;;;;;;;;;;;;5055292;28;20007;-73
2022/11/01 06:19:47;;;;;;;;;;;;;;;;;;5069147;28;19920;-73
2022/11/01 06:22:12;;;;;;;;;;;;;;;;;;5069327;28;19913;-72
2022/11/01 06:24:37;;;;;;;;;;;;;;;;;;5073594;28;19914;-73
2022/11/01 06:27:02;;;;;;;;;;;;;;;;;;5075482;28;20381;-71
2022/11/01 06:29:28;;;;;;;;;;;;;;;;;;5087978;28;20387;-65
2022/11/01 06:31:53;;;;;;;;;;;;;;;;;;5071993;28;19920;-67
2022/11/01 06:34:18;;;;;;;;;;;;;;;;;;5071616;28;20361;-65
2022/11/01 06:36:43;;;;;;;;;;;;;;;;;;5082220;28;19919;-66
2022/11/01 06:39:10;;;;;;;;;;;;;;;;;;5071538;28;20341;-67
2022/11/01 06:41:35;;;;;;;;;;;;;;;;;;5059815;28;19919;-68
2022/11/01 06:44:00;;;;;;;;;;;;;;;;;;5053361;28;19912;-68
2022/11/01 06:46:25;;;;;;;;;;;;;;;;;;5068714;28;19916;-67
2022/11/01 06:48:51;;;;;;;;;;;;;;;;;;5061360;28;19917;-66
2022/11/01 06:51:16;;;;;;;;;;;;;;;;;;5066537;28;20361;-67
2022/11/01 06:53:41;;;;;;;;;;;;;;;;;;5070848;28;19915;-66
2022/11/01 06:56:06;;;;;;;;;;;;;;;;;;5071113;28;20430;-68
2022/11/01 06:58:31;;;;;;;;;;;;;;;;;;5071538;28;19913;-67
2022/11/01 07:00:56;;;;;;;;;;;;;;;;;;5072691;28;19917;-67
2022/11/01 07:03:21;;;;;;;;;;;;;;;;;;5072611;28;19917;-66
2022/11/01 07:05:48;;;;;;;;;;;;;;;;;;5070260;28;19920;-66
2022/11/01 07:08:13;;;;;;;;;;;;;;;;;;5068698;28;20448;-66
2022/11/01 07:10:38;;;;;;;;;;;;;;;;;;5061000;28;20003;-66
2022/11/01 07:13:03;;;;;;;;;;;;;;;;;;5064020;28;19919;-65
2022/11/01 07:15:29;;;;;;;;;;;;;;;;;;5071841;28;19916;-66
2022/11/01 07:17:54;;;;;;;;;;;;;;;;;;5073157;28;19908;-66
2022/11/01 07:20:19;;;;;;;;;;;;;;;;;;5072834;28;19909;-67
2022/11/01 07:22:44;;;;;;;;;;;;;;;;;;5069605;28;20292;-66
2022/11/01 07:25:09;;;;;;;;;;;;;;;;;;5072780;28;19945;-67
2022/11/01 07:27:35;;;;;;;;;;;;;;;;;;5072712;28;19921;-66
2022/11/01 07:30:00;;;;;;;;;;;;;;;;;;5072346;28;19959;-66
2022/11/01 07:32:25;;;;;;;;;;;;;;;;;;5074313;28;20002;-67
2022/11/01 07:34:50;;;;;;;;;;;;;;;;;;5071757;28;19917;-67
2022/11/01 07:37:16;;;;;;;;;;;;;;;;;;5071929;28;20392;-67
2022/11/01 07:39:41;;;;;;;;;;;;;;;;;;5070822;28;20444;-65
2022/11/01 07:42:06;;;;;;;;;;;;;;;;;;5072958;28;20011;-66
2022/11/01 07:44:31;;;;;;;;;;;;;;;;;;5070180;28;19917;-67
2022/11/01 07:46:56;;;;;;;;;;;;;;;;;;5072640;28;20270;-66
2022/11/01 07:49:21;;;;;;;;;;;;;;;;;;5073070;28;20331;-66
2022/11/01 07:51:46;;;;;;;;;;;;;;;;;;5070811;28;19916;-67
2022/11/01 07:54:12;;;;;;;;;;;;;;;;;;5071823;28;20280;-67
2022/11/01 07:56:37;;;;;;;;;;;;;;;;;;5065949;28;20284;-67
2022/11/01 07:59:02;;;;;;;;;;;;;;;;;;5070258;28;19985;-65
2022/11/01 08:01:27;;;;;;;;;;;;;;;;;;5072130;28;20392;-66
2022/11/01 08:03:52;;;;;;;;;;;;;;;;;;5105106;28;20280;-66
2022/11/01 08:06:17;;;;;;;;;;;;;;;;;;5109697;27;20403;-67
2022/11/01 08:08:44;;;;;;;;;;;;;;;;;;5084020;28;19908;-67
2022/11/01 08:11:09;;;;;;;;;;;;;;;;;;5086435;28;19912;-68
2022/11/01 08:13:35;;;;;;;;;;;;;;;;;;5072427;28;19916;-66
2022/11/01 08:16:01;;;;;;;;;;;;;;;;;;5070975;28;19912;-65
2022/11/01 08:18:26;;;;;;;;;;;;;;;;;;5073089;28;20121;-66
2022/11/01 08:20:51;;;;;;;;;;;;;;;;;;5069686;28;19909;-67
2022/11/01 08:23:16;;;;;;;;;;;;;;;;;;5071210;28;19919;-66
2022/11/01 08:25:41;;;;;;;;;;;;;;;;;;5079163;28;19916;-66
2022/11/01 08:28:07;;;;;;;;;;;;;;;;;;5071165;28;19912;-67
2022/11/01 08:30:32;;;;;;;;;;;;;;;;;;5069889;28;20284;-65
2022/11/01 08:32:57;;;;;;;;;;;;;;;;;;5120926;28;19912;-66
2022/11/01 08:35:22;;;;;;;;;;;;;;;;;;5081365;28;20007;-66
2022/11/01 08:37:47;;;;;;;;;;;;;;;;;;5071234;28;19913;-66
2022/11/01 08:40:12;;;;;;;;;;;;;;;;;;5065976;28;19912;-66
2022/11/01 08:42:38;;;;;;;;;;;;;;;;;;5090106;28;19909;-66
2022/11/01 08:45:03;;;;;;;;;;;;;;;;;;5072490;28;19909;-67
2022/11/01 08:47:28;;;;;;;;;;;;;;;;;;5071514;28;19923;-66
2022/11/01 08:49:53;;;;;;;;;;;;;;;;;;5071320;28;20292;-66
2022/11/01 08:52:18;;;;;;;;;;;;;;;;;;5068450;28;20369;-67
2022/11/01 08:54:43;;;;;;;;;;;;;;;;;;5070639;28;20369;-66
2022/11/01 08:57:08;;;;;;;;;;;;;;;;;;5079575;28;19916;-66
2022/11/01 08:59:34;;;;;;;;;;;;;;;;;;5073453;28;19912;-65
2022/11/01 09:01:59;;;;;;;;;;;;;;;;;;5069795;28;19974;-67
2022/11/01 09:04:24;;;;;;;;;;;;;;;;;;5114638;27;19953;-68
2022/11/01 09:06:49;;;;;;;;;;;;;;;;;;5095940;28;20368;-68
2022/11/01 09:09:14;;;;;;;;;;;;;;;;;;5079820;28;20371;-67
2022/11/01 09:11:39;;;;;;;;;;;;;;;;;;5074932;28;20491;-68
2022/11/01 09:14:04;;;;;;;;;;;;;;;;;;5105326;28;19913;-66
2022/11/01 09:16:31;;;;;;;;;;;;;;;;;;5075347;28;20007;-66
2022/11/01 09:19:00;;;;;;;;;;;;;;;;;;5105060;28;19986;-67
2022/11/01 09:21:25;;;;;;;;;;;;;;;;;;5074311;28;19954;-66
2022/11/01 09:23:50;;;;;;;;;;;;;;;;;;5075109;28;19924;-65
2022/11/01 09:26:15;;;;;;;;;;;;;;;;;;5074923;28;19931;-67
2022/11/01 09:28:41;;;;;;;;;;;;;;;;;;5075668;28;19912;-68
2022/11/01 09:31:06;;;;;;;;;;;;;;;;;;5075426;28;19917;-67
2022/11/01 09:33:31;;;;;;;;;;;;;;;;;;5075443;28;20292;-66
2022/11/01 09:35:56;;;;;;;;;;;;;;;;;;5075035;28;20387;-67
2022/11/01 09:38:21;;;;;;;;;;;;;;;;;;5075165;28;19962;-65
2022/11/01 09:40:46;;;;;;;;;;;;;;;;;;5073594;28;19951;-66
2022/11/01 09:43:11;;;;;;;;;;;;;;;;;;5071396;28;19934;-66
2022/11/01 09:45:37;;;;;;;;;;;;;;;;;;5056416;28;19917;-66
2022/11/01 09:48:02;;;;;;;;;;;;;;;;;;5054830;28;19955;-66
2022/11/01 09:50:28;;;;;;;;;;;;;;;;;;5055466;28;19913;-66
2022/11/01 09:52:54;;;;;;;;;;;;;;;;;;5072475;28;19912;-66
2022/11/01 09:55:19;;;;;;;;;;;;;;;;;;5074016;28;20352;-66
2022/11/01 09:57:44;;;;;;;;;;;;;;;;;;5074442;28;20322;-66
2022/11/01 10:00:10;;;;;;;;;;;;;;;;;;5077131;28;20414;-68
2022/11/01 10:02:35;;;;;;;;;;;;;;;;;;5079515;28;19912;-65
2022/11/01 10:05:00;;;;;;;;;;;;;;;;;;5073950;28;19920;-66
2022/11/01 10:07:26;;;;;;;;;;;;;;;;;;5073854;28;19921;-66
2022/11/01 10:09:51;;;;;;;;;;;;;;;;;;5074012;28;19912;-66
2022/11/01 10:12:16;;;;;;;;;;;;;;;;;;5101763;28;19912;-66
2022/11/01 10:14:41;;;;;;;;;;;;;;;;;;5053436;28;19999;-67
2022/11/01 10:17:06;;;;;;;;;;;;;;;;;;5075779;28;20352;-66
2022/11/01 10:19:32;;;;;;;;;;;;;;;;;;5074235;28;20007;-67
2022/11/01 10:21:59;;;;;;;;;;;;;;;;;;5072281;28;19939;-67
2022/11/01 10:24:25;;;;;;;;;;;;;;;;;;5073285;28;19913;-65
2022/11/01 10:26:50;;;;;;;;;;;;;;;;;;5066258;28;19928;-65
2022/11/01 10:29:15;;;;;;;;;;;;;;;;;;5086076;28;19955;-67
2022/11/01 10:31:40;;;;;;;;;;;;;;;;;;5070963;28;19908;-66
2022/11/01 10:34:06;;;;;;;;;;;;;;;;;;5073086;28;20368;-66
2022/11/01 10:36:31;;;;;;;;;;;;;;;;;;5084068;28;20424;-66
2022/11/01 10:38:56;;;;;;;;;;;;;;;;;;5079473;28;20149;-65
2022/11/01 10:41:21;;;;;;;;;;;;;;;;;;5073319;28;19909;-65
2022/11/01 10:43:46;;;;;;;;;;;;;;;;;;5078564;28;19920;-68
2022/11/01 10:46:12;;;;;;;;;;;;;;;;;;5073282;28;19995;-67
2022/11/01 10:48:37;;;;;;;;;;;;;;;;;;5073447;28;19919;-67
2022/11/01 10:51:02;;;;;;;;;;;;;;;;;;5071909;28;20280;-66
2022/11/01 10:53:27;;;;;;;;;;;;;;;;;;5072476;28;20368;-66
2022/11/01 10:55:52;;;;;;;;;;;;;;;;;;5072027;28;20353;-66
2022/11/01 10:58:18;;;;;;;;;;;;;;;;;;5074345;28;19912;-65
2022/11/01 11:00:43;;;;;;;;;;;;;;;;;;5108168;27;20292;-69
2022/11/01 11:03:08;;;;;;;;;;;;;;;;;;5069705;28;20356;-65
2022/11/01 11:05:33;;;;;;;;;;;;;;;;;;5070026;28;19912;-66
2022/11/01 11:08:00;;;;;;;;;;;;;;;;;;5074167;28;19921;-66
2022/11/01 11:10:25;;;;;;;;;;;;;;;;;;5067158;28;19920;-66
2022/11/01 11:12:51;;;;;;;;;;;;;;;;;;5071354;28;19912;-67
2022/11/01 11:15:16;;;;;;;;;;;;;;;;;;5078397;28;19921;-67
2022/11/01 11:17:44;;;;;;;;;;;;;;;;;;5072803;28;19912;-65
2022/11/01 11:20:10;;;;;;;;;;;;;;;;;;5071837;28;19958;-67
2022/11/01 11:22:35;;;;;;;;;;;;;;;;;;5061251;28;20000;-66
2022/11/01 11:25:01;;;;;;;;;;;;;;;;;;5068643;28;20297;-66
2022/11/01 11:27:26;;;;;;;;;;;;;;;;;;5069543;28;19931;-66
2022/11/01 11:29:51;;;;;;;;;;;;;;;;;;5069474;28;19975;-65
2022/11/01 11:32:16;;;;;;;;;;;;;;;;;;5100625;28;20396;-65
2022/11/01 11:34:41;;;;;;;;;;;;;;;;;;5063852;28;19941;-66
2022/11/01 11:37:06;;;;;;;;;;;;;;;;;;5055128;28;19917;-66
2022/11/01 11:39:34;;;;;;;;;;;;;;;;;;5064005;28;20280;-67
2022/11/01 11:41:59;;;;;;;;;;;;;;;;;;5071827;28;19919;-65
2022/11/01 11:44:24;;;;;;;;;;;;;;;;;;5102129;28;19999;-65
2022/11/01 11:46:49;;;;;;;;;;;;;;;;;;5063266;28;19916;-67
2022/11/01 11:49:14;;;;;;;;;;;;;;;;;;5065015;28;19919;-66
2022/11/01 11:51:41;;;;;;;;;;;;;;;;;;5054649;28;19999;-66
2022/11/01 11:54:06;;;;;;;;;;;;;;;;;;5070059;28;19958;-66
2022/11/01 11:56:31;;;;;;;;;;;;;;;;;;5070210;28;19921;-65
2022/11/01 11:58:56;;;;;;;;;;;;;;;;;;5058096;28;20325;-66
2022/11/01 12:01:21;;;;;;;;;;;;;;;;;;5069087;28;20276;-65
2022/11/01 12:03:47;;;;;;;;;;;;;;;;;;5105234;28;20011;-66
2022/11/01 12:06:12;;;;;;;;;;;;;;;;;;5069589;28;19920;-66
2022/11/01 12:08:37;;;;;;;;;;;;;;;;;;5067304;28;20404;-66
2022/11/01 12:11:02;;;;;;;;;;;;;;;;;;5069042;28;20361;-66
2022/11/01 12:13:27;;;;;;;;;;;;;;;;;;5092202;28;19912;-66
2022/11/01 12:15:52;;;;;;;;;;;;;;;;;;5070142;28;20411;-66
2022/11/01 12:18:17;;;;;;;;;;;;;;;;;;5071566;28;19913;-68
2022/11/01 12:20:43;;;;;;;;;;;;;;;;;;5070387;28;20403;-66
2022/11/01 12:23:09;;;;;;;;;;;;;;;;;;5066568;28;20007;-66
2022/11/01 12:25:34;;;;;;;;;;;;;;;;;;5071204;28;19921;-65
2022/11/01 12:27:59;;;;;;;;;;;;;;;;;;5071496;28;20442;-66
2022/11/01 12:30:25;;;;;;;;;;;;;;;;;;5071062;28;19908;-66
2022/11/01 12:32:50;;;;;;;;;;;;;;;;;;5073646;28;19921;-66
2022/11/01 12:35:15;;;;;;;;;;;;;;;;;;5069834;28;19913;-66
2022/11/01 12:37:40;;;;;;;;;;;;;;;;;;5056587;28;19922;-66
2022/11/01 12:40:05;;;;;;;;;;;;;;;;;;5081870;28;20371;-66
2022/11/01 12:42:30;;;;;;;;;;;;;;;;;;5076044;28;20423;-66
2022/11/01 12:44:56;;;;;;;;;;;;;;;;;;5068381;28;19979;-66
2022/11/01 12:47:21;;;;;;;;;;;;;;;;;;5073657;28;19943;-64
2022/11/01 12:49:46;;;;;;;;;;;;;;;;;;5070623;28;20281;-66
2022/11/01 12:52:11;;;;;;;;;;;;;;;;;;5064510;28;19913;-66
2022/11/01 12:54:36;;;;;;;;;;;;;;;;;;5072019;28;19956;-66
2022/11/01 12:57:01;;;;;;;;;;;;;;;;;;5072274;28;19916;-65
2022/11/01 12:59:26;;;;;;;;;;;;;;;;;;5072229;28;20421;-67
2022/11/01 13:01:51;;;;;;;;;;;;;;;;;;5075674;28;19904;-67
2022/11/01 13:04:17;;;;;;;;;;;;;;;;;;5071586;28;19916;-66
2022/11/01 13:06:42;;;;;;;;;;;;;;;;;;5076871;28;19992;-66
2022/11/01 13:09:07;;;;;;;;;;;;;;;;;;5075194;28;19915;-67
2022/11/01 13:11:32;;;;;;;;;;;;;;;;;;5075499;28;19909;-66
2022/11/01 13:13:57;;;;;;;;;;;;;;;;;;5092076;28;20007;-66
2022/11/01 13:16:22;;;;;;;;;;;;;;;;;;5073365;28;19919;-67
2022/11/01 13:18:47;;;;;;;;;;;;;;;;;;5075529;28;19915;-66
2022/11/01 13:21:13;;;;;;;;;;;;;;;;;;5077291;28;19912;-66
2022/11/01 13:23:38;;;;;;;;;;;;;;;;;;5074827;28;19956;-67
2022/11/01 13:26:03;;;;;;;;;;;;;;;;;;5073151;28;19920;-67
2022/11/01 13:28:28;;;;;;;;;;;;;;;;;;5075369;28;19908;-66
2022/11/01 13:30:53;;;;;;;;;;;;;;;;;;5074480;28;19916;-66
2022/11/01 13:33:19;;;;;;;;;;;;;;;;;;5073828;28;19945;-66
2022/11/01 13:35:44;;;;;;;;;;;;;;;;;;5073930;28;19915;-67
2022/11/01 13:38:09;;;;;;;;;;;;;;;;;;5087746;28;20429;-67
2022/11/01 13:40:34;;;;;;;;;;;;;;;;;;5079358;28;19908;-67
2022/11/01 13:43:01;;;;;;;;;;;;;;;;;;5083036;28;19922;-67
2022/11/01 13:45:26;;;;;;;;;;;;;;;;;;5084291;28;19919;-66
2022/11/01 13:47:51;;;;;;;;;;;;;;;;;;5074960;28;19916;-65
2022/11/01 13:50:16;;;;;;;;;;;;;;;;;;5074352;28;20340;-66
2022/11/01 13:52:42;;;;;;;;;;;;;;;;;;5072728;28;19931;-66
2022/11/01 13:55:07;;;;;;;;;;;;;;;;;;5078848;28;20011;-66
2022/11/01 13:57:33;;;;;;;;;;;;;;;;;;5076790;28;19978;-67
2022/11/01 13:59:58;;;;;;;;;;;;;;;;;;5078418;28;19917;-67
2022/11/01 14:02:23;;;;;;;;;;;;;;;;;;5074277;28;19909;-66
2022/11/01 14:04:48;;;;;;;;;;;;;;;;;;5074644;28;20319;-67
2022/11/01 14:07:13;;;;;;;;;;;;;;;;;;5073564;28;20360;-67
2022/11/01 14:09:38;;;;;;;;;;;;;;;;;;5072812;28;20372;-66
2022/11/01 14:12:03;;;;;;;;;;;;;;;;;;5107456;27;19945;-66
2022/11/01 14:14:29;;;;;;;;;;;;;;;;;;5086231;28;19908;-66
2022/11/01 14:16:54;;;;;;;;;;;;;;;;;;5054134;28;19905;-66
2022/11/01 14:19:19;;;;;;;;;;;;;;;;;;5099449;28;20394;-66
2022/11/01 14:21:44;;;;;;;;;;;;;;;;;;5072342;28;20316;-67
2022/11/01 14:24:09;;;;;;;;;;;;;;;;;;5074260;28;19908;-67
2022/11/01 14:26:35;;;;;;;;;;;;;;;;;;5073683;28;19920;-66
2022/11/01 14:29:01;;;;;;;;;;;;;;;;;;5073833;28;20015;-67
2022/11/01 14:31:26;;;;;;;;;;;;;;;;;;5106281;28;19913;-66
2022/11/01 14:33:51;;;;;;;;;;;;;;;;;;5072810;28;20011;-66
2022/11/01 14:36:17;;;;;;;;;;;;;;;;;;5073596;28;19912;-66
2022/11/01 14:38:42;;;;;;;;;;;;;;;;;;5070100;28;20384;-66
2022/11/01 14:41:07;;;;;;;;;;;;;;;;;;5066839;28;19917;-66
2022/11/01 14:43:32;;;;;;;;;;;;;;;;;;5070843;28;19958;-66
2022/11/01 14:45:57;;;;;;;;;;;;;;;;;;5070076;28;19938;-66
2022/11/01 14:48:23;;;;;;;;;;;;;;;;;;5077876;28;19955;-67
2022/11/01 14:50:49;;;;;;;;;;;;;;;;;;5075817;28;19912;-67
2022/11/01 14:53:14;;;;;;;;;;;;;;;;;;5073063;28;19913;-66
2022/11/01 14:55:39;;;;;;;;;;;;;;;;;;5076757;28;19915;-67
2022/11/01 14:58:04;;;;;;;;;;;;;;;;;;5072153;28;19919;-66
2022/11/01 15:00:29;;;;;;;;;;;;;;;;;;5069612;28;20015;-67
2022/11/01 15:02:55;;;;;;;;;;;;;;;;;;5070609;28;19912;-66
2022/11/01 15:05:20;;;;;;;;;;;;;;;;;;5063838;28;19987;-67
2022/11/01 15:07:45;;;;;;;;;;;;;;;;;;5099643;28;19970;-67
2022/11/01 15:10:11;;;;;;;;;;;;;;;;;;5067536;28;20285;-66
2022/11/01 15:12:36;;;;;;;;;;;;;;;;;;5065060;28;19956;-67
2022/11/01 15:15:01;;;;;;;;;;;;;;;;;;5070129;28;19912;-66
2022/11/01 15:17:27;;;;;;;;;;;;;;;;;;5095591;28;19959;-68
2022/11/01 15:19:53;;;;;;;;;;;;;;;;;;5057983;28;19913;-67
2022/11/01 15:22:28;;;;;;;;;;;;;;;;;;5087146;28;20073;-65
2022/11/01 15:24:53;;;;;;;;;;;;;;;;;;5088016;28;20349;-66
2022/11/01 15:27:19;;;;;;;;;;;;;;;;;;5085703;28;19912;-67
2022/11/01 15:29:44;;;;;;;;;;;;;;;;;;5084732;28;19912;-67
2022/11/01 15:32:09;;;;;;;;;;;;;;;;;;5084020;28;19917;-67
2022/11/01 15:34:35;;;;;;;;;;;;;;;;;;5085986;28;19975;-67
2022/11/01 15:37:00;;;;;;;;;;;;;;;;;;5086888;28;19920;-67
2022/11/01 15:39:25;;;;;;;;;;;;;;;;;;5093371;28;19917;-64
2022/11/01 15:41:51;;;;;;;;;;;;;;;;;;5083611;28;20007;-67
2022/11/01 15:44:16;;;;;;;;;;;;;;;;;;5086807;28;19961;-67
2022/11/01 15:46:41;;;;;;;;;;;;;;;;;;5086280;28;19912;-66
2022/11/01 15:49:06;;;;;;;;;;;;;;;;;;5091911;28;19950;-66
2022/11/01 15:51:31;;;;;;;;;;;;;;;;;;5089831;28;20415;-66
2022/11/01 15:53:56;;;;;;;;;;;;;;;;;;5078100;28;19931;-67
2022/11/01 15:56:21;;;;;;;;;;;;;;;;;;5099911;28;19948;-66
2022/11/01 15:58:47;;;;;;;;;;;;;;;;;;5094823;28;19916;-67
2022/11/01 16:01:12;;;;;;;;;;;;;;;;;;5082526;28;19958;-66
2022/11/01 16:03:37;;;;;;;;;;;;;;;;;;5086437;28;19939;-67
2022/11/01 16:06:02;;;;;;;;;;;;;;;;;;5080605;28;20280;-67
2022/11/01 16:08:27;;;;;;;;;;;;;;;;;;5082246;28;20272;-67
2022/11/01 16:10:52;;;;;;;;;;;;;;;;;;5083479;28;19937;-67
2022/11/01 16:13:17;;;;;;;;;;;;;;;;;;5085143;28;19913;-67
2022/11/01 16:15:43;;;;;;;;;;;;;;;;;;5079227;28;20379;-67
2022/11/01 16:18:08;;;;;;;;;;;;;;;;;;5087137;28;19917;-66
2022/11/01 16:20:33;;;;;;;;;;;;;;;;;;5082940;28;19920;-66
2022/11/01 16:22:58;;;;;;;;;;;;;;;;;;5075610;28;19951;-66
2022/11/01 16:25:24;;;;;;;;;;;;;;;;;;5076871;28;19920;-65
2022/11/01 16:27:49;;;;;;;;;;;;;;;;;;5085602;28;19920;-65
2022/11/01 16:30:14;;;;;;;;;;;;;;;;;;5080227;28;19913;-66
2022/11/01 16:32:39;;;;;;;;;;;;;;;;;;5071484;28;19954;-66
2022/11/01 16:35:04;;;;;;;;;;;;;;;;;;5069599;28;19913;-65
2022/11/01 16:37:29;;;;;;;;;;;;;;;;;;5072706;28;20015;-66